Time;durP1;ratioP1;P1;durP2;ratioP2;P2;SDS_P1;SDS_P2;PMS_P1;PMS_P2;Temp;Humidity;BMP_temperature;BMP_pressure;BME280_temperature;BME280_humidity;BME280_pressure;Samples;Min_cycle;Max_cycle;Signal;HPM_P1;HPM_P2
2023/03/28 00:02:07;;;;;;;13.55;3.42;;;1.40;99.90;;;;;;4992856;28;20483;-70
2023/03/28 00:04:36;;;;;;;8.48;2.50;;;1.30;99.90;;;;;;4980684;28;20552;-71
2023/03/28 00:07:04;;;;;;;10.00;2.33;;;1.40;99.90;;;;;;5010096;28;20042;-71
2023/03/28 00:09:31;;;;;;;9.02;2.08;;;1.30;99.90;;;;;;4995154;28;20052;-71
2023/03/28 00:12:00;;;;;;;9.82;2.30;;;1.30;99.90;;;;;;5011815;28;20049;-73
2023/03/28 00:14:27;;;;;;;10.32;2.28;;;1.30;99.90;;;;;;5012423;28;20061;-71
2023/03/28 00:16:53;;;;;;;9.70;2.78;;;1.30;99.90;;;;;;5012968;28;20048;-72
2023/03/28 00:19:21;;;;;;;11.73;2.42;;;1.20;99.90;;;;;;4985067;28;20049;-71
2023/03/28 00:21:50;;;;;;;10.10;2.63;;;1.30;99.90;;;;;;4975758;28;20054;-71
2023/03/28 00:24:21;;;;;;;9.15;2.50;;;1.20;99.90;;;;;;4992861;28;20054;-71
2023/03/28 00:26:48;;;;;;;5.55;2.08;;;1.20;99.90;;;;;;4975254;28;20080;-71
2023/03/28 00:29:19;;;;;;;6.47;2.40;;;1.20;99.90;;;;;;4975627;28;20086;-71
2023/03/28 00:31:48;;;;;;;13.63;2.95;;;1.20;99.90;;;;;;4975201;28;20047;-72
2023/03/28 00:34:15;;;;;;;14.90;3.17;;;1.40;99.90;;;;;;4992398;28;20061;-70
2023/03/28 00:36:42;;;;;;;8.88;3.13;;;1.20;99.90;;;;;;4975761;28;20058;-71
2023/03/28 00:39:10;;;;;;;11.57;2.50;;;1.10;99.90;;;;;;4990567;28;20050;-70
2023/03/28 00:41:40;;;;;;;13.70;2.90;;;1.10;99.90;;;;;;5011890;28;21064;-70
2023/03/28 00:44:53;;;;;;;10.60;3.80;;;1.10;99.90;;;;;;4994349;28;20046;-70
2023/03/28 00:47:37;;;;;;;9.05;2.60;;;1.10;99.90;;;;;;4975775;28;20527;-69
2023/03/28 00:50:09;;;;;;;11.05;2.40;;;1.10;99.90;;;;;;5012257;28;20444;-70
2023/03/28 00:52:41;;;;;;;8.93;2.72;;;1.10;99.90;;;;;;5011575;28;20130;-70
2023/03/28 00:55:12;;;;;;;10.93;2.65;;;1.00;99.90;;;;;;5011979;28;20077;-70
2023/03/28 00:57:40;;;;;;;6.50;2.50;;;1.00;99.90;;;;;;5011726;28;20328;-69
2023/03/28 01:00:11;;;;;;;8.48;2.13;;;0.90;99.90;;;;;;4993752;28;20445;-70
2023/03/28 01:02:44;;;;;;;9.90;2.10;;;0.90;99.90;;;;;;4984005;28;20109;-70
2023/03/28 01:05:13;;;;;;;6.82;2.20;;;0.90;99.90;;;;;;4992499;28;20121;-70
2023/03/28 01:07:45;;;;;;;7.43;2.33;;;1.00;99.90;;;;;;4991371;28;20053;-69
2023/03/28 01:10:12;;;;;;;10.82;3.08;;;1.00;99.90;;;;;;4975299;28;20134;-70
2023/03/28 01:12:41;;;;;;;8.45;2.38;;;0.80;99.90;;;;;;5000612;28;20129;-70
2023/03/28 01:15:09;;;;;;;12.52;2.42;;;0.80;99.90;;;;;;5011219;28;20112;-70
2023/03/28 01:17:36;;;;;;;8.70;1.88;;;0.80;99.90;;;;;;5011788;28;20053;-71
2023/03/28 01:20:25;;;;;;;6.68;2.10;;;0.80;99.90;;;;;;4992750;28;20406;-70
2023/03/28 01:23:34;;;;;;;9.27;2.10;;;0.80;99.90;;;;;;5001757;28;20085;-70
2023/03/28 01:26:36;;;;;;;13.90;2.95;;;0.70;99.90;;;;;;4974896;28;20120;-70
2023/03/28 01:29:53;;;;;;;14.57;2.22;;;0.70;99.90;;;;;;5004685;28;20048;-71
2023/03/28 01:32:50;;;;;;;10.90;3.03;;;0.70;99.90;;;;;;4993909;28;20089;-71
2023/03/28 01:35:50;;;;;;;10.35;2.53;;;0.60;99.90;;;;;;4985439;28;20061;-70
2023/03/28 01:38:26;;;;;;;12.38;2.47;;;0.60;99.90;;;;;;5012421;28;20058;-70
2023/03/28 01:41:03;;;;;;;15.40;3.20;;;0.60;99.90;;;;;;4997627;28;20046;-70
2023/03/28 01:43:37;;;;;;;8.13;2.28;;;0.50;99.90;;;;;;4997122;28;20093;-72
2023/03/28 01:46:11;;;;;;;8.48;2.28;;;0.60;99.90;;;;;;4997577;28;20050;-71
2023/03/28 01:48:49;;;;;;;8.05;2.20;;;0.50;99.90;;;;;;5014423;28;20521;-70
2023/03/28 01:51:23;;;;;;;11.60;2.17;;;0.50;99.90;;;;;;4997698;28;20057;-70
2023/03/28 01:53:59;;;;;;;8.13;2.00;;;0.50;99.90;;;;;;4997451;28;20049;-70
2023/03/28 01:56:31;;;;;;;9.48;2.13;;;0.70;99.90;;;;;;5014244;28;20057;-71
2023/03/28 01:59:05;;;;;;;8.15;2.00;;;0.50;99.90;;;;;;5015062;28;20065;-70
2023/03/28 02:01:38;;;;;;;7.63;1.92;;;0.50;99.90;;;;;;5014778;28;20056;-71
2023/03/28 02:04:10;;;;;;;8.35;1.83;;;0.50;99.90;;;;;;4986957;28;20042;-71
2023/03/28 02:06:39;;;;;;;7.88;2.33;;;0.50;99.90;;;;;;5015132;28;20038;-71
2023/03/28 02:09:10;;;;;;;7.63;2.40;;;0.50;99.90;;;;;;4997191;28;20054;-71
2023/03/28 02:11:38;;;;;;;9.93;2.53;;;0.50;99.90;;;;;;5014240;28;20049;-71
2023/03/28 02:14:09;;;;;;;7.53;1.83;;;0.40;99.90;;;;;;4997346;28;20444;-70
2023/03/28 02:16:40;;;;;;;7.63;2.03;;;0.50;99.90;;;;;;5014776;28;20045;-70
2023/03/28 02:19:08;;;;;;;8.65;1.85;;;0.40;99.90;;;;;;4996160;28;20096;-70
2023/03/28 02:21:39;;;;;;;7.43;2.00;;;0.50;99.90;;;;;;5014351;28;20462;-70
2023/03/28 02:24:10;;;;;;;7.30;2.17;;;0.50;99.90;;;;;;4993320;28;20050;-70
2023/03/28 02:26:37;;;;;;;8.82;2.22;;;0.40;99.90;;;;;;4978024;28;20093;-70
2023/03/28 02:29:07;;;;;;;13.13;2.40;;;0.40;99.90;;;;;;4977350;28;21031;-70
2023/03/28 02:31:34;;;;;;;7.47;1.80;;;0.40;99.90;;;;;;4986733;28;20108;-70
2023/03/28 02:34:02;;;;;;;7.57;2.30;;;0.30;99.90;;;;;;5011386;28;20052;-70
2023/03/28 02:36:40;;;;;;;8.25;2.28;;;0.30;99.90;;;;;;4996739;28;20046;-71
2023/03/28 02:39:28;;;;;;;8.13;2.13;;;0.40;99.90;;;;;;4996026;28;20058;-70
2023/03/28 02:42:16;;;;;;;5.72;2.13;;;0.40;99.90;;;;;;5014117;28;20092;-69
2023/03/28 02:45:02;;;;;;;8.70;2.95;;;0.40;99.90;;;;;;5014451;28;20441;-70
2023/03/28 02:47:35;;;;;;;11.05;2.63;;;0.40;99.90;;;;;;5013787;28;20053;-70
2023/03/28 02:50:15;;;;;;;10.23;2.30;;;0.40;99.90;;;;;;4988763;28;20054;-70
2023/03/28 02:52:51;;;;;;;12.43;2.53;;;0.40;99.90;;;;;;5013538;28;20092;-71
2023/03/28 02:55:24;;;;;;;20.52;2.38;;;0.50;99.90;;;;;;5014005;28;20125;-69
2023/03/28 02:57:55;;;;;;;8.57;1.98;;;0.30;99.90;;;;;;4996289;28;20042;-70
2023/03/28 03:00:21;;;;;;;7.03;2.28;;;0.40;99.90;;;;;;4988861;28;20054;-70
2023/03/28 03:02:51;;;;;;;8.15;1.83;;;0.40;99.90;;;;;;4987627;28;20046;-70
2023/03/28 03:05:20;;;;;;;15.18;2.40;;;0.40;99.90;;;;;;4970221;28;20085;-71
2023/03/28 03:07:48;;;;;;;7.28;1.92;;;0.40;99.90;;;;;;4993503;28;20125;-71
2023/03/28 03:10:15;;;;;;;7.93;2.17;;;0.40;99.90;;;;;;4977070;28;20046;-70
2023/03/28 03:12:44;;;;;;;10.95;2.33;;;0.40;99.90;;;;;;4985869;28;20125;-69
2023/03/28 03:15:11;;;;;;;5.90;2.10;;;0.30;99.90;;;;;;4986078;28;20101;-72
2023/03/28 03:17:39;;;;;;;12.10;2.22;;;0.40;99.90;;;;;;5013425;28;20038;-70
2023/03/28 03:20:07;;;;;;;12.07;2.25;;;0.30;99.90;;;;;;4991496;28;20074;-70
2023/03/28 03:22:35;;;;;;;8.38;2.25;;;0.30;99.90;;;;;;4976608;28;20050;-69
2023/03/28 03:25:05;;;;;;;10.10;2.05;;;0.60;99.90;;;;;;4993959;28;20093;-69
2023/03/28 03:27:32;;;;;;;6.93;1.90;;;0.30;99.90;;;;;;4976380;28;20177;-70
2023/03/28 03:30:01;;;;;;;11.32;2.40;;;0.20;99.90;;;;;;4976985;28;20446;-70
2023/03/28 03:32:28;;;;;;;8.65;2.83;;;0.10;99.90;;;;;;4976794;28;20054;-70
2023/03/28 03:34:55;;;;;;;16.48;2.60;;;0.10;99.90;;;;;;4986133;28;20061;-70
2023/03/28 03:37:22;;;;;;;8.48;2.03;;;0.10;99.90;;;;;;5013117;28;20050;-70
2023/03/28 03:39:48;;;;;;;9.30;2.72;;;0.10;99.90;;;;;;4985031;28;20113;-69
2023/03/28 03:42:15;;;;;;;12.32;2.40;;;0.00;99.90;;;;;;4975011;28;20055;-69
2023/03/28 03:44:42;;;;;;;12.48;2.72;;;0.00;99.90;;;;;;4993187;28;20042;-69
2023/03/28 03:47:11;;;;;;;7.55;2.08;;;-0.10;99.90;;;;;;4993158;28;20121;-70
2023/03/28 03:49:38;;;;;;;8.57;2.42;;;-0.10;99.90;;;;;;4975560;28;20149;-71
2023/03/28 03:52:05;;;;;;;5.85;2.25;;;-0.10;99.90;;;;;;4976005;28;20050;-70
2023/03/28 03:54:32;;;;;;;7.90;2.15;;;-0.10;99.90;;;;;;4986078;28;20494;-69
2023/03/28 03:57:00;;;;;;;11.02;2.53;;;-0.10;99.90;;;;;;4989214;28;20051;-70
2023/03/28 03:59:27;;;;;;;8.07;2.20;;;-0.20;99.90;;;;;;4969029;28;20059;-70
2023/03/28 04:01:54;;;;;;;10.25;2.20;;;-0.20;99.90;;;;;;4987270;28;20050;-70
2023/03/28 04:04:23;;;;;;;12.15;2.42;;;-0.20;99.90;;;;;;4991031;28;20485;-70
2023/03/28 04:06:50;;;;;;;6.80;2.45;;;-0.20;99.90;;;;;;4998355;28;20047;-70
2023/03/28 04:09:17;;;;;;;9.88;2.63;;;-0.30;99.90;;;;;;4974366;28;20062;-71
2023/03/28 04:11:43;;;;;;;7.88;2.38;;;-0.30;99.90;;;;;;4968452;28;20063;-69
2023/03/28 04:14:10;;;;;;;9.18;2.97;;;-0.30;99.90;;;;;;4976577;28;20529;-69
2023/03/28 04:16:37;;;;;;;11.00;2.90;;;-0.30;99.90;;;;;;4995233;28;20992;-70
2023/03/28 04:19:04;;;;;;;14.60;3.10;;;-0.40;99.90;;;;;;4990131;28;20526;-70
2023/03/28 04:21:34;;;;;;;9.38;2.20;;;-0.40;99.90;;;;;;4991972;28;20054;-70
2023/03/28 04:24:01;;;;;;;10.25;2.78;;;-0.40;99.90;;;;;;4974831;28;20061;-70
2023/03/28 04:26:28;;;;;;;14.85;2.40;;;-0.40;99.90;;;;;;4985093;28;20093;-70
2023/03/28 04:28:56;;;;;;;9.10;3.33;;;-0.40;99.90;;;;;;4976833;28;20058;-71
2023/03/28 04:31:27;;;;;;;9.18;2.45;;;-0.40;99.90;;;;;;4991789;28;20046;-71
2023/03/28 04:33:54;;;;;;;11.07;3.30;;;-0.40;99.90;;;;;;5003714;28;20054;-70
2023/03/28 04:36:24;;;;;;;9.45;2.78;;;-0.40;99.90;;;;;;4986854;28;20506;-70
2023/03/28 04:38:57;;;;;;;9.73;2.47;;;-0.40;99.90;;;;;;4982423;28;20046;-70
2023/03/28 04:41:24;;;;;;;11.88;2.72;;;-0.40;99.90;;;;;;4983941;28;20581;-69
2023/03/28 04:43:51;;;;;;;5.10;2.22;;;-0.40;99.90;;;;;;4971187;28;20061;-70
2023/03/28 04:46:18;;;;;;;7.03;2.20;;;-0.30;99.90;;;;;;4990737;28;20089;-70
2023/03/28 04:48:45;;;;;;;12.02;2.53;;;-0.30;99.90;;;;;;4990386;28;20046;-70
2023/03/28 04:51:12;;;;;;;13.30;2.20;;;-0.30;99.90;;;;;;4974692;28;20137;-69
2023/03/28 04:53:39;;;;;;;9.65;2.90;;;-0.40;99.90;;;;;;4991822;28;20065;-70
2023/03/28 04:56:12;;;;;;;9.18;2.40;;;-0.40;99.90;;;;;;4978828;28;20388;-70
2023/03/28 04:58:40;;;;;;;11.27;2.40;;;-0.40;99.90;;;;;;4990448;28;20101;-69
2023/03/28 05:01:10;;;;;;;8.88;2.30;;;-0.40;99.90;;;;;;4992338;28;20129;-69
2023/03/28 05:03:38;;;;;;;9.95;2.20;;;-0.40;99.90;;;;;;4990747;28;20042;-70
2023/03/28 05:06:06;;;;;;;13.52;2.45;;;-0.40;99.90;;;;;;4991064;28;20043;-70
2023/03/28 05:08:33;;;;;;;11.15;2.90;;;-0.40;99.90;;;;;;4986383;28;20042;-69
2023/03/28 05:11:00;;;;;;;10.55;2.55;;;-0.40;99.90;;;;;;4984362;28;20454;-71
2023/03/28 05:13:28;;;;;;;13.05;3.70;;;-0.10;99.90;;;;;;4988973;28;20057;-70
2023/03/28 05:15:55;;;;;;;12.95;2.42;;;-0.30;99.90;;;;;;4992267;28;20502;-71
2023/03/28 05:18:22;;;;;;;13.15;2.67;;;-0.30;99.90;;;;;;4997360;28;21324;-70
2023/03/28 05:20:49;;;;;;;13.75;2.85;;;-0.20;99.90;;;;;;4980310;28;20079;-70
2023/03/28 05:23:16;;;;;;;7.78;2.25;;;-0.10;99.90;;;;;;4991100;28;20054;-70
2023/03/28 05:25:43;;;;;;;12.55;2.72;;;-0.10;99.90;;;;;;4969631;28;20447;-70
2023/03/28 05:28:10;;;;;;;9.68;2.70;;;0.00;99.90;;;;;;4978924;28;20042;-70
2023/03/28 05:30:39;;;;;;;9.50;2.33;;;0.10;99.90;;;;;;4979863;28;20499;-69
2023/03/28 05:33:06;;;;;;;9.45;3.10;;;0.20;99.90;;;;;;4990890;28;20066;-70
2023/03/28 05:35:33;;;;;;;11.05;2.72;;;0.30;99.90;;;;;;4991194;28;20050;-69
2023/03/28 05:38:01;;;;;;;7.13;2.88;;;0.40;99.90;;;;;;4992060;28;20533;-70
2023/03/28 05:40:28;;;;;;;5.80;2.30;;;0.50;99.90;;;;;;5015159;28;20057;-70
2023/03/28 05:42:55;;;;;;;13.27;2.60;;;0.70;99.90;;;;;;5014673;28;20494;-71
2023/03/28 05:45:22;;;;;;;10.98;2.58;;;0.80;99.90;;;;;;4997710;28;20054;-70
2023/03/28 05:47:54;;;;;;;9.98;2.47;;;0.90;99.90;;;;;;5014333;28;20053;-70
2023/03/28 05:50:21;;;;;;;8.48;2.80;;;0.90;99.90;;;;;;4994830;28;20469;-69
2023/03/28 05:52:48;;;;;;;13.55;3.85;;;1.00;99.90;;;;;;4975517;28;20058;-70
2023/03/28 05:55:15;;;;;;;14.65;3.33;;;1.10;99.90;;;;;;4976871;28;20487;-70
2023/03/28 05:57:42;;;;;;;12.15;2.67;;;1.20;99.90;;;;;;4991531;28;20042;-70
2023/03/28 06:00:11;;;;;;;8.10;2.50;;;1.30;99.90;;;;;;4991998;28;20050;-70
2023/03/28 06:02:39;;;;;;;17.75;3.00;;;1.40;99.90;;;;;;4994280;28;20572;-70
2023/03/28 06:05:08;;;;;;;12.95;3.22;;;1.50;99.90;;;;;;4995347;28;20047;-70
2023/03/28 06:07:35;;;;;;;9.55;2.92;;;1.50;99.90;;;;;;5002505;28;20049;-70
2023/03/28 06:10:03;;;;;;;12.20;2.75;;;1.60;99.90;;;;;;5013974;28;20052;-70
2023/03/28 06:12:30;;;;;;;10.75;3.42;;;1.70;99.90;;;;;;4997088;28;20057;-70
2023/03/28 06:14:57;;;;;;;11.43;3.33;;;1.90;99.90;;;;;;4996940;28;20050;-70
2023/03/28 06:17:24;;;;;;;12.57;3.40;;;1.80;99.90;;;;;;4996703;28;20096;-70
2023/03/28 06:19:51;;;;;;;10.52;2.97;;;1.90;99.90;;;;;;4972563;28;20082;-70
2023/03/28 06:22:20;;;;;;;8.93;2.97;;;2.10;99.90;;;;;;4977296;28;20498;-70
2023/03/28 06:24:47;;;;;;;9.63;2.33;;;2.20;99.90;;;;;;4977063;28;20050;-71
2023/03/28 06:27:13;;;;;;;13.70;2.83;;;2.30;99.90;;;;;;4977630;28;20497;-70
2023/03/28 06:29:40;;;;;;;10.00;2.53;;;2.40;99.90;;;;;;4994818;28;20050;-70
2023/03/28 06:32:07;;;;;;;7.15;2.53;;;2.50;99.90;;;;;;4977374;28;20062;-70
2023/03/28 06:34:34;;;;;;;9.48;2.33;;;2.60;99.90;;;;;;4977711;28;20100;-71
2023/03/28 06:37:02;;;;;;;7.47;2.42;;;2.70;99.90;;;;;;4994490;28;20134;-70
2023/03/28 06:39:30;;;;;;;10.73;2.70;;;2.70;99.90;;;;;;4994539;28;20403;-70
2023/03/28 06:41:58;;;;;;;8.80;2.25;;;2.80;99.90;;;;;;4994259;28;20048;-70
2023/03/28 06:44:25;;;;;;;13.32;2.80;;;2.80;99.90;;;;;;4977404;28;20065;-71
2023/03/28 06:46:52;;;;;;;16.88;3.63;;;2.90;99.90;;;;;;4994347;28;20062;-70
2023/03/28 06:49:19;;;;;;;5.30;2.30;;;3.00;99.90;;;;;;4977402;28;20449;-70
2023/03/28 06:51:46;;;;;;;9.00;2.13;;;3.00;99.90;;;;;;4993701;28;20092;-70
2023/03/28 06:54:13;;;;;;;13.13;3.78;;;3.10;99.90;;;;;;4977555;28;20130;-70
2023/03/28 06:56:41;;;;;;;6.40;2.40;;;3.10;99.90;;;;;;4994114;28;20050;-71
2023/03/28 06:59:08;;;;;;;12.68;3.28;;;3.20;99.90;;;;;;4993784;28;20038;-71
2023/03/28 07:01:35;;;;;;;11.82;2.72;;;3.30;99.90;;;;;;4976976;28;20046;-70
2023/03/28 07:04:01;;;;;;;8.60;2.47;;;3.40;99.90;;;;;;4977252;28;20054;-70
2023/03/28 07:06:29;;;;;;;11.13;2.15;;;3.50;99.90;;;;;;4993872;28;20055;-70
2023/03/28 07:08:57;;;;;;;12.20;2.72;;;3.60;99.90;;;;;;4985137;28;20062;-71
2023/03/28 07:11:24;;;;;;;10.82;2.60;;;3.90;99.90;;;;;;5005871;28;20061;-70
2023/03/28 07:13:53;;;;;;;6.63;2.25;;;5.00;99.90;;;;;;5013306;28;20131;-71
2023/03/28 07:16:20;;;;;;;7.95;2.30;;;6.20;99.90;;;;;;5013333;28;20125;-70
2023/03/28 07:18:47;;;;;;;10.88;3.28;;;7.10;99.90;;;;;;4996003;28;20037;-71
2023/03/28 07:21:16;;;;;;;9.75;2.75;;;8.10;99.90;;;;;;4985219;28;20050;-72
2023/03/28 07:23:44;;;;;;;9.30;2.95;;;9.20;99.90;;;;;;5013070;28;20509;-71
2023/03/28 07:26:13;;;;;;;7.93;2.15;;;10.50;99.90;;;;;;4996117;28;20493;-71
2023/03/28 07:28:40;;;;;;;12.10;3.35;;;11.20;99.90;;;;;;4971405;28;20066;-71
2023/03/28 07:31:09;;;;;;;8.88;1.90;;;12.10;99.90;;;;;;4974576;28;20055;-71
2023/03/28 07:33:37;;;;;;;5.00;1.58;;;12.70;99.90;;;;;;4992727;28;20061;-71
2023/03/28 07:36:10;;;;;;;8.52;2.15;;;12.90;99.90;;;;;;4992594;28;20046;-72
2023/03/28 07:38:37;;;;;;;6.43;2.33;;;13.10;99.10;;;;;;4976662;28;20113;-71
2023/03/28 07:41:04;;;;;;;5.82;1.80;;;12.70;99.90;;;;;;4975758;28;20081;-71
2023/03/28 07:43:31;;;;;;;7.15;2.15;;;12.60;99.70;;;;;;4981814;28;20054;-71
2023/03/28 07:46:01;;;;;;;5.63;1.98;;;13.00;99.90;;;;;;4992075;28;20137;-71
2023/03/28 07:48:30;;;;;;;5.18;1.80;;;13.20;99.30;;;;;;4994723;28;20049;-71
2023/03/28 07:50:58;;;;;;;7.13;2.33;;;13.70;97.80;;;;;;4991415;28;20050;-70
2023/03/28 07:53:25;;;;;;;7.50;2.00;;;13.60;96.90;;;;;;4976201;28;20078;-71
2023/03/28 07:55:52;;;;;;;6.78;1.65;;;13.90;96.40;;;;;;4992433;28;20050;-71
2023/03/28 07:58:19;;;;;;;6.15;1.73;;;14.10;96.10;;;;;;4976458;28;20050;-69
2023/03/28 08:00:46;;;;;;;7.82;2.17;;;14.10;94.90;;;;;;4975526;28;20047;-70
2023/03/28 08:03:13;;;;;;;4.35;1.75;;;14.60;93.70;;;;;;4975676;28;20064;-70
2023/03/28 08:05:42;;;;;;;7.30;1.80;;;15.30;93.90;;;;;;4975972;28;20058;-71
2023/03/28 08:08:09;;;;;;;6.72;1.52;;;15.90;92.60;;;;;;4993110;28;20054;-71
2023/03/28 08:10:36;;;;;;;5.07;1.60;;;15.40;90.50;;;;;;4980985;28;20137;-70
2023/03/28 08:13:03;;;;;;;5.47;1.75;;;16.10;91.60;;;;;;4992296;28;20058;-70
2023/03/28 08:15:30;;;;;;;5.57;2.00;;;16.50;88.80;;;;;;4994525;28;20045;-71
2023/03/28 08:17:57;;;;;;;6.70;2.20;;;16.00;86.60;;;;;;4994769;28;20050;-72
2023/03/28 08:20:24;;;;;;;6.32;1.33;;;15.80;87.70;;;;;;4994787;28;20049;-72
2023/03/28 08:22:52;;;;;;;4.15;1.70;;;16.50;87.10;;;;;;4993807;28;20053;-72
2023/03/28 08:25:19;;;;;;;4.30;1.63;;;15.30;82.30;;;;;;5012208;28;20120;-73
2023/03/28 08:27:46;;;;;;;5.72;1.25;;;15.50;81.80;;;;;;5012092;28;20053;-71
2023/03/28 08:30:13;;;;;;;3.60;0.90;;;14.80;82.30;;;;;;5011419;28;20045;-71
2023/03/28 08:32:40;;;;;;;4.22;1.20;;;13.90;81.90;;;;;;4994272;28;20046;-70
2023/03/28 08:35:07;;;;;;;7.78;1.35;;;13.00;85.00;;;;;;4994811;28;20057;-71
2023/03/28 08:37:34;;;;;;;5.38;1.40;;;12.40;87.40;;;;;;4994000;28;20407;-70
2023/03/28 08:40:09;;;;;;;5.70;1.40;;;12.00;88.80;;;;;;4992639;28;20038;-69
2023/03/28 08:42:57;;;;;;;4.65;1.30;;;11.20;89.00;;;;;;4975615;28;20117;-71
2023/03/28 08:45:35;;;;;;;2.95;0.90;;;10.70;90.40;;;;;;4991879;28;20050;-72
2023/03/28 08:48:15;;;;;;;4.82;1.35;;;10.60;91.30;;;;;;4992093;28;20054;-73
2023/03/28 08:50:46;;;;;;;5.80;1.42;;;10.60;91.30;;;;;;4974640;28;20077;-72
2023/03/28 08:53:20;;;;;;;3.67;1.30;;;10.20;91.90;;;;;;4989543;28;20050;-71
2023/03/28 08:55:49;;;;;;;7.40;1.75;;;10.00;92.70;;;;;;4983633;28;20050;-72
2023/03/28 08:58:20;;;;;;;7.32;1.67;;;9.90;93.20;;;;;;5010704;28;20108;-71
2023/03/28 09:00:47;;;;;;;;;;;10.20;93.60;;;;;;4994273;28;20046;-71
2023/03/28 09:03:17;;;;;;;4.82;1.80;;;10.00;93.30;;;;;;4994392;28;20332;-71
2023/03/28 09:05:48;;;;;;;7.05;1.90;;;10.30;93.30;;;;;;4990344;28;20453;-71
2023/03/28 09:08:50;;;;;;;5.43;1.35;;;11.20;92.70;;;;;;4974998;28;20054;-72
2023/03/28 09:11:29;;;;;;;7.35;1.77;;;11.40;90.90;;;;;;4991214;28;20058;-72
2023/03/28 09:14:11;;;;;;;6.00;1.48;;;11.80;90.50;;;;;;4974722;28;20414;-71
2023/03/28 09:16:51;;;;;;;4.78;1.25;;;12.10;90.20;;;;;;4975420;28;20061;-71
2023/03/28 09:19:27;;;;;;;;;;;12.40;88.20;;;;;;4975197;28;20047;-72
2023/03/28 09:22:09;;;;;;;5.75;1.60;;;12.70;85.90;;;;;;4974660;28;19936;-71
2023/03/28 09:24:56;;;;;;;4.65;1.80;;;12.90;86.90;;;;;;4985222;28;20046;-72
2023/03/28 09:27:31;;;;;;;3.33;1.00;;;13.50;86.10;;;;;;4990338;28;20082;-72
2023/03/28 09:30:10;;;;;;;4.72;1.60;;;14.60;81.50;;;;;;5008548;28;20088;-72
2023/03/28 09:32:40;;;;;;;5.35;1.40;;;15.20;81.10;;;;;;5011454;28;20064;-72
2023/03/28 09:35:13;;;;;;;;;;;15.30;78.90;;;;;;5011328;28;20129;-72
2023/03/28 09:37:42;;;;;;;6.32;1.48;;;14.40;78.00;;;;;;5011622;28;19921;-72
2023/03/28 09:40:17;;;;;;;6.00;1.60;;;13.60;81.80;;;;;;4993020;28;20065;-72
2023/03/28 09:42:54;;;;;;;5.80;1.23;;;12.90;82.90;;;;;;4982516;28;20062;-72
2023/03/28 09:45:34;;;;;;;4.57;1.45;;;11.80;82.80;;;;;;5011187;28;20157;-72
2023/03/28 09:48:02;;;;;;;2.85;0.90;;;11.20;83.00;;;;;;5010985;28;20121;-72
2023/03/28 09:50:29;;;;;;;5.25;1.30;;;11.00;85.10;;;;;;4982553;28;20047;-71
2023/03/28 09:52:57;;;;;;;3.08;1.35;;;11.00;84.90;;;;;;5007763;28;20049;-72
2023/03/28 09:55:27;;;;;;;5.18;1.02;;;10.90;83.40;;;;;;5010766;28;20069;-72
2023/03/28 09:58:07;;;;;;;3.33;1.00;;;10.60;83.30;;;;;;5011257;28;20056;-71
2023/03/28 10:00:37;;;;;;;3.88;1.33;;;10.40;82.70;;;;;;4998359;28;20071;-72
2023/03/28 10:03:06;;;;;;;3.72;1.27;;;10.80;83.90;;;;;;4984563;28;20553;-72
2023/03/28 10:05:38;;;;;;;3.30;1.05;;;11.30;83.10;;;;;;4987859;28;20054;-71
2023/03/28 10:08:21;;;;;;;3.55;1.00;;;11.40;82.90;;;;;;4996243;28;20051;-72
2023/03/28 10:10:59;;;;;;;6.95;1.30;;;11.40;83.50;;;;;;4997058;28;20088;-71
2023/03/28 10:13:28;;;;;;;3.53;1.10;;;11.10;83.60;;;;;;4997039;28;20137;-72
2023/03/28 10:15:58;;;;;;;6.88;1.85;;;10.60;85.40;;;;;;5014114;28;20081;-71
2023/03/28 10:18:30;;;;;;;9.23;1.40;;;10.20;86.90;;;;;;4986693;28;20109;-72
2023/03/28 10:21:01;;;;;;;6.47;1.55;;;10.20;87.90;;;;;;4991678;28;20069;-71
2023/03/28 10:23:29;;;;;;;5.35;1.42;;;10.00;88.60;;;;;;4977708;28;20054;-71
2023/03/28 10:26:02;;;;;;;4.65;1.40;;;9.90;90.20;;;;;;5002699;28;20046;-72
2023/03/28 10:28:32;;;;;;;7.80;2.25;;;10.10;90.50;;;;;;4992829;28;20132;-71
2023/03/28 10:31:01;;;;;;;4.10;1.58;;;10.20;90.20;;;;;;4994069;28;20049;-71
2023/03/28 10:33:32;;;;;;;5.63;1.50;;;10.10;90.70;;;;;;4994778;28;20065;-71
2023/03/28 10:36:01;;;;;;;5.00;1.30;;;10.20;89.40;;;;;;4978090;28;20061;-72
2023/03/28 10:38:32;;;;;;;3.65;1.33;;;11.10;84.70;;;;;;4994036;28;20490;-71
2023/03/28 10:41:02;;;;;;;4.13;1.25;;;12.40;83.30;;;;;;4977581;28;20054;-71
2023/03/28 10:43:36;;;;;;;5.78;1.55;;;13.20;78.50;;;;;;4976846;28;20057;-71
2023/03/28 10:46:07;;;;;;;5.70;1.70;;;13.60;78.90;;;;;;4994891;28;20050;-71
2023/03/28 10:48:36;;;;;;;6.55;1.65;;;14.30;79.60;;;;;;4995380;28;20561;-71
2023/03/28 10:51:09;;;;;;;5.13;1.75;;;14.60;77.70;;;;;;4976940;28;20054;-72
2023/03/28 10:54:18;;;;;;;3.85;1.65;;;15.00;77.90;;;;;;4987480;28;20050;-72
2023/03/28 10:56:51;;;;;;;6.18;1.35;;;15.60;74.00;;;;;;4989346;28;20076;-71
2023/03/28 10:59:45;;;;;;;4.70;1.58;;;15.80;75.30;;;;;;4995888;28;20481;-72
2023/03/28 11:02:43;;;;;;;3.15;1.60;;;15.20;74.20;;;;;;5013532;28;20123;-72
2023/03/28 11:05:35;;;;;;;4.70;1.42;;;13.90;74.60;;;;;;4988014;28;20609;-72
2023/03/28 11:08:10;;;;;;;2.70;1.52;;;12.90;77.20;;;;;;5013277;28;20038;-72
2023/03/28 11:10:43;;;;;;;6.93;1.95;;;12.10;80.40;;;;;;5012587;28;20046;-72
2023/03/28 11:13:25;;;;;;;5.90;1.90;;;11.50;83.10;;;;;;4995148;28;20509;-71
2023/03/28 11:16:01;;;;;;;5.57;2.33;;;11.30;83.90;;;;;;4995844;28;20091;-71
2023/03/28 11:18:40;;;;;;;5.60;1.63;;;11.00;85.60;;;;;;5012737;28;20095;-72
2023/03/28 11:21:18;;;;;;;5.32;1.92;;;10.90;87.80;;;;;;4995697;28;20445;-71
2023/03/28 11:23:47;;;;;;;5.80;2.17;;;11.10;87.10;;;;;;4995900;28;20061;-71
2023/03/28 11:26:16;;;;;;;7.95;2.30;;;11.40;86.30;;;;;;4994954;28;20132;-71
2023/03/28 11:29:09;;;;;;;8.13;2.50;;;11.60;85.70;;;;;;5013129;28;20046;-71
2023/03/28 11:31:42;;;;;;;10.63;2.28;;;11.70;85.60;;;;;;5011445;28;20395;-71
2023/03/28 11:34:18;;;;;;;3.55;1.80;;;12.00;85.70;;;;;;5012504;28;20077;-72
2023/03/28 11:36:52;;;;;;;8.82;2.28;;;12.40;82.20;;;;;;5013178;28;20065;-71
2023/03/28 11:39:29;;;;;;;8.75;2.65;;;12.30;81.30;;;;;;4995594;28;20100;-71
2023/03/28 11:42:00;;;;;;;4.05;1.80;;;12.00;81.70;;;;;;4995201;28;20088;-71
2023/03/28 11:44:32;;;;;;;6.57;2.45;;;11.90;82.20;;;;;;5013034;28;20461;-71
2023/03/28 11:47:07;;;;;;;4.13;2.20;;;12.60;81.30;;;;;;5012503;28;20042;-71
2023/03/28 11:49:40;;;;;;;6.47;2.17;;;12.50;79.40;;;;;;4993338;28;20398;-71
2023/03/28 11:52:14;;;;;;;6.63;2.10;;;12.90;80.10;;;;;;4993024;28;20130;-72
2023/03/28 11:54:45;;;;;;;6.15;2.05;;;13.60;80.20;;;;;;4975590;28;20050;-71
2023/03/28 11:57:19;;;;;;;5.43;1.90;;;13.80;78.70;;;;;;4976187;28;20078;-72
2023/03/28 11:59:52;;;;;;;4.85;2.00;;;13.70;77.20;;;;;;4976220;28;20445;-70
2023/03/28 12:02:41;;;;;;;4.30;2.10;;;13.70;77.90;;;;;;4975632;28;20117;-71
2023/03/28 12:05:18;;;;;;;5.72;2.10;;;13.60;75.20;;;;;;4976105;28;20137;-71
2023/03/28 12:07:52;;;;;;;6.47;2.30;;;13.70;77.00;;;;;;4992936;28;20050;-72
2023/03/28 12:10:23;;;;;;;5.90;2.00;;;13.60;77.70;;;;;;4993185;28;20073;-72
2023/03/28 12:13:03;;;;;;;3.80;2.45;;;14.10;76.20;;;;;;4976095;28;20042;-71
2023/03/28 12:15:37;;;;;;;3.78;1.92;;;14.40;77.50;;;;;;4975172;28;20047;-71
2023/03/28 12:18:10;;;;;;;5.25;1.95;;;14.60;76.10;;;;;;4976035;28;20407;-70
2023/03/28 12:20:39;;;;;;;7.00;2.25;;;14.60;76.60;;;;;;4975592;28;20387;-71
2023/03/28 12:23:11;;;;;;;4.40;1.70;;;14.40;77.30;;;;;;4972842;28;20054;-72
2023/03/28 12:25:46;;;;;;;3.78;1.90;;;14.70;77.30;;;;;;4975174;28;20112;-71
2023/03/28 12:28:23;;;;;;;5.70;2.25;;;14.90;77.30;;;;;;4975251;28;20054;-71
2023/03/28 12:30:58;;;;;;;4.22;2.08;;;14.20;76.50;;;;;;4972855;28;20050;-72
2023/03/28 12:33:37;;;;;;;7.97;2.40;;;14.00;77.80;;;;;;4969678;28;20046;-71
2023/03/28 12:36:11;;;;;;;4.53;2.00;;;13.70;78.10;;;;;;4973240;28;20058;-72
2023/03/28 12:38:42;;;;;;;4.50;2.70;;;13.90;79.20;;;;;;4989948;28;20046;-71
2023/03/28 12:41:13;;;;;;;7.25;2.35;;;14.70;79.80;;;;;;4973363;28;20050;-71
2023/03/28 12:43:44;;;;;;;7.85;2.30;;;14.80;77.60;;;;;;4989755;28;20120;-71
2023/03/28 12:46:15;;;;;;;6.43;2.45;;;15.20;77.80;;;;;;4992800;28;20105;-71
2023/03/28 12:48:47;;;;;;;4.47;2.03;;;15.00;76.10;;;;;;4972249;28;20089;-72
2023/03/28 12:51:17;;;;;;;4.85;2.28;;;15.10;75.00;;;;;;4991301;28;20442;-71
2023/03/28 12:53:59;;;;;;;8.68;2.22;;;15.10;74.30;;;;;;4975623;28;20046;-71
2023/03/28 12:56:26;;;;;;;4.68;2.10;;;14.50;73.40;;;;;;4990462;28;20057;-71
2023/03/28 12:58:53;;;;;;;5.97;2.08;;;14.40;71.20;;;;;;4995450;28;20046;-71
2023/03/28 13:01:29;;;;;;;3.25;1.90;;;14.60;72.20;;;;;;5011776;28;20042;-72
2023/03/28 13:04:06;;;;;;;6.57;2.25;;;14.40;68.90;;;;;;4971782;28;20462;-71
2023/03/28 13:06:43;;;;;;;3.80;2.13;;;13.80;71.10;;;;;;4972318;28;20047;-70
2023/03/28 13:09:30;;;;;;;5.22;2.20;;;13.80;74.10;;;;;;4990543;28;20552;-71
2023/03/28 13:12:04;;;;;;;8.18;2.20;;;14.00;72.20;;;;;;4974401;28;20058;-71
2023/03/28 13:14:36;;;;;;;6.55;2.50;;;13.60;71.90;;;;;;4975364;28;20137;-72